sensor_id;sensor_type;location;lat;lon;timestamp;temperature;humidity
5786;DHT22;2919;48.630;9.000;2022-11-13T00:00:52;2.30;99.90
5786;DHT22;2919;48.630;9.000;2022-11-13T00:03:17;2.40;99.90
5786;DHT22;2919;48.630;9.000;2022-11-13T00:05:43;2.40;99.90
5786;DHT22;2919;48.630;9.000;2022-11-13T00:08:09;2.40;99.90
5786;DHT22;2919;48.630;9.000;2022-11-13T00:10:34;2.40;99.90
5786;DHT22;2919;48.630;9.000;2022-11-13T00:13:00;2.30;99.90
5786;DHT22;2919;48.630;9.000;2022-11-13T00:15:26;2.30;99.90
5786;DHT22;2919;48.630;9.000;2022-11-13T00:17:51;2.30;99.90
5786;DHT22;2919;48.630;9.000;2022-11-13T00:20:18;2.20;99.90
5786;DHT22;2919;48.630;9.000;2022-11-13T00:22:43;2.30;99.90
5786;DHT22;2919;48.630;9.000;2022-11-13T00:25:09;2.30;99.90
5786;DHT22;2919;48.630;9.000;2022-11-13T00:27:35;2.30;99.90
5786;DHT22;2919;48.630;9.000;2022-11-13T00:30:00;2.40;99.90
5786;DHT22;2919;48.630;9.000;2022-11-13T00:32:27;2.40;99.90
5786;DHT22;2919;48.630;9.000;2022-11-13T00:34:52;2.50;99.90
5786;DHT22;2919;48.630;9.000;2022-11-13T00:37:18;2.50;99.90
5786;DHT22;2919;48.630;9.000;2022-11-13T00:39:44;2.50;99.90
5786;DHT22;2919;48.630;9.000;2022-11-13T00:42:09;2.50;99.90
5786;DHT22;2919;48.630;9.000;2022-11-13T00:44:35;2.50;99.90
5786;DHT22;2919;48.630;9.000;2022-11-13T00:47:00;2.50;99.90
5786;DHT22;2919;48.630;9.000;2022-11-13T00:49:26;2.40;99.90
5786;DHT22;2919;48.630;9.000;2022-11-13T00:51:52;2.40;99.90
5786;DHT22;2919;48.630;9.000;2022-11-13T00:54:17;2.40;99.90
5786;DHT22;2919;48.630;9.000;2022-11-13T00:56:43;2.40;99.90
5786;DHT22;2919;48.630;9.000;2022-11-13T00:59:08;2.40;99.90
5786;DHT22;2919;48.630;9.000;2022-11-13T01:01:34;2.40;99.90
5786;DHT22;2919;48.630;9.000;2022-11-13T01:04:00;2.40;99.90
5786;DHT22;2919;48.630;9.000;2022-11-13T01:06:27;2.40;99.90
5786;DHT22;2919;48.630;9.000;2022-11-13T01:08:55;2.40;99.90
5786;DHT22;2919;48.630;9.000;2022-11-13T01:11:24;2.30;99.90
5786;DHT22;2919;48.630;9.000;2022-11-13T01:13:51;2.30;99.90
5786;DHT22;2919;48.630;9.000;2022-11-13T01:16:19;2.30;99.90
5786;DHT22;2919;48.630;9.000;2022-11-13T01:18:45;2.20;99.90
5786;DHT22;2919;48.630;9.000;2022-11-13T01:21:16;2.20;99.90
5786;DHT22;2919;48.630;9.000;2022-11-13T01:23:42;2.10;99.90
5786;DHT22;2919;48.630;9.000;2022-11-13T01:28:37;2.10;99.90
5786;DHT22;2919;48.630;9.000;2022-11-13T01:31:07;2.20;99.90
5786;DHT22;2919;48.630;9.000;2022-11-13T01:33:33;2.10;99.90
5786;DHT22;2919;48.630;9.000;2022-11-13T01:36:01;2.00;99.90
5786;DHT22;2919;48.630;9.000;2022-11-13T01:38:26;2.00;99.90
5786;DHT22;2919;48.630;9.000;2022-11-13T01:40:52;1.90;99.90
5786;DHT22;2919;48.630;9.000;2022-11-13T01:48:33;1.80;99.90
5786;DHT22;2919;48.630;9.000;2022-11-13T01:51:03;1.80;99.90
5786;DHT22;2919;48.630;9.000;2022-11-13T01:53:29;1.80;99.90
5786;DHT22;2919;48.630;9.000;2022-11-13T01:55:55;1.90;99.90
5786;DHT22;2919;48.630;9.000;2022-11-13T01:58:21;1.90;99.90
5786;DHT22;2919;48.630;9.000;2022-11-13T02:00:46;1.90;99.90
5786;DHT22;2919;48.630;9.000;2022-11-13T02:03:12;1.90;99.90
5786;DHT22;2919;48.630;9.000;2022-11-13T02:05:37;1.90;99.90
5786;DHT22;2919;48.630;9.000;2022-11-13T02:08:03;1.90;99.90
5786;DHT22;2919;48.630;9.000;2022-11-13T02:10:29;1.90;99.90
5786;DHT22;2919;48.630;9.000;2022-11-13T02:12:55;1.80;99.90
5786;DHT22;2919;48.630;9.000;2022-11-13T02:15:23;1.80;99.90
5786;DHT22;2919;48.630;9.000;2022-11-13T02:17:53;1.90;99.90
5786;DHT22;2919;48.630;9.000;2022-11-13T02:23:11;1.90;99.90
5786;DHT22;2919;48.630;9.000;2022-11-13T02:25:39;1.90;99.90
5786;DHT22;2919;48.630;9.000;2022-11-13T02:28:06;1.80;99.90
5786;DHT22;2919;48.630;9.000;2022-11-13T02:30:34;1.80;99.90
5786;DHT22;2919;48.630;9.000;2022-11-13T02:33:00;1.70;99.90
5786;DHT22;2919;48.630;9.000;2022-11-13T02:35:32;1.70;99.90
5786;DHT22;2919;48.630;9.000;2022-11-13T02:38:02;1.70;99.90
5786;DHT22;2919;48.630;9.000;2022-11-13T02:40:28;1.60;99.90
5786;DHT22;2919;48.630;9.000;2022-11-13T02:42:54;1.60;99.90
5786;DHT22;2919;48.630;9.000;2022-11-13T02:45:20;1.60;99.90
5786;DHT22;2919;48.630;9.000;2022-11-13T02:47:45;1.60;99.90
5786;DHT22;2919;48.630;9.000;2022-11-13T02:50:11;1.60;99.90
5786;DHT22;2919;48.630;9.000;2022-11-13T02:52:37;1.50;99.90
5786;DHT22;2919;48.630;9.000;2022-11-13T02:55:03;1.40;99.90
5786;DHT22;2919;48.630;9.000;2022-11-13T02:57:29;1.30;99.90
5786;DHT22;2919;48.630;9.000;2022-11-13T02:59:55;1.20;99.90
5786;DHT22;2919;48.630;9.000;2022-11-13T03:02:20;1.10;99.90
5786;DHT22;2919;48.630;9.000;2022-11-13T03:04:46;1.10;99.90
5786;DHT22;2919;48.630;9.000;2022-11-13T03:07:12;1.10;99.90
5786;DHT22;2919;48.630;9.000;2022-11-13T03:09:41;1.10;99.90
5786;DHT22;2919;48.630;9.000;2022-11-13T03:12:08;1.20;99.90
5786;DHT22;2919;48.630;9.000;2022-11-13T03:14:34;1.20;99.90
5786;DHT22;2919;48.630;9.000;2022-11-13T03:16:59;1.20;99.90
5786;DHT22;2919;48.630;9.000;2022-11-13T03:19:26;1.20;99.90
5786;DHT22;2919;48.630;9.000;2022-11-13T03:21:51;1.10;99.90
5786;DHT22;2919;48.630;9.000;2022-11-13T03:24:17;1.10;99.90
5786;DHT22;2919;48.630;9.000;2022-11-13T03:26:43;1.00;99.90
5786;DHT22;2919;48.630;9.000;2022-11-13T03:29:08;1.00;99.90
5786;DHT22;2919;48.630;9.000;2022-11-13T03:31:34;1.00;99.90
5786;DHT22;2919;48.630;9.000;2022-11-13T03:34:00;1.00;99.90
5786;DHT22;2919;48.630;9.000;2022-11-13T03:36:25;1.00;99.90
5786;DHT22;2919;48.630;9.000;2022-11-13T03:38:51;1.00;99.90
5786;DHT22;2919;48.630;9.000;2022-11-13T03:41:17;1.00;99.90
5786;DHT22;2919;48.630;9.000;2022-11-13T03:43:43;1.00;99.90
5786;DHT22;2919;48.630;9.000;2022-11-13T03:46:08;1.00;99.90
5786;DHT22;2919;48.630;9.000;2022-11-13T03:48:34;0.90;99.90
5786;DHT22;2919;48.630;9.000;2022-11-13T03:51:00;0.90;99.90
5786;DHT22;2919;48.630;9.000;2022-11-13T03:53:26;0.90;99.90
5786;DHT22;2919;48.630;9.000;2022-11-13T03:55:52;0.90;99.90
5786;DHT22;2919;48.630;9.000;2022-11-13T03:58:18;0.80;99.90
5786;DHT22;2919;48.630;9.000;2022-11-13T04:00:45;0.90;99.90
5786;DHT22;2919;48.630;9.000;2022-11-13T04:03:11;0.80;99.90
5786;DHT22;2919;48.630;9.000;2022-11-13T04:05:37;0.90;99.90
5786;DHT22;2919;48.630;9.000;2022-11-13T04:08:03;0.80;99.90
5786;DHT22;2919;48.630;9.000;2022-11-13T04:10:29;0.80;99.90
5786;DHT22;2919;48.630;9.000;2022-11-13T04:12:54;0.80;99.90
5786;DHT22;2919;48.630;9.000;2022-11-13T04:15:20;0.80;99.90
5786;DHT22;2919;48.630;9.000;2022-11-13T04:17:45;0.80;99.90
5786;DHT22;2919;48.630;9.000;2022-11-13T04:20:12;0.80;99.90
5786;DHT22;2919;48.630;9.000;2022-11-13T04:22:37;0.90;99.90
5786;DHT22;2919;48.630;9.000;2022-11-13T04:25:04;0.90;99.90
5786;DHT22;2919;48.630;9.000;2022-11-13T04:27:30;0.80;99.90
5786;DHT22;2919;48.630;9.000;2022-11-13T04:29:56;0.80;99.90
5786;DHT22;2919;48.630;9.000;2022-11-13T04:32:22;0.70;99.90
5786;DHT22;2919;48.630;9.000;2022-11-13T04:34:47;0.70;99.90
5786;DHT22;2919;48.630;9.000;2022-11-13T04:37:13;0.70;99.90
5786;DHT22;2919;48.630;9.000;2022-11-13T04:39:39;0.70;99.90
5786;DHT22;2919;48.630;9.000;2022-11-13T04:42:04;0.70;99.90
5786;DHT22;2919;48.630;9.000;2022-11-13T04:44:49;0.70;99.90
5786;DHT22;2919;48.630;9.000;2022-11-13T04:47:14;0.70;99.90
5786;DHT22;2919;48.630;9.000;2022-11-13T04:49:40;0.70;99.90
5786;DHT22;2919;48.630;9.000;2022-11-13T04:52:06;0.60;99.90
5786;DHT22;2919;48.630;9.000;2022-11-13T04:54:31;0.50;99.90
5786;DHT22;2919;48.630;9.000;2022-11-13T04:56:57;0.50;99.90
5786;DHT22;2919;48.630;9.000;2022-11-13T04:59:22;0.40;99.90
5786;DHT22;2919;48.630;9.000;2022-11-13T05:01:49;0.40;99.90
5786;DHT22;2919;48.630;9.000;2022-11-13T05:04:15;0.40;99.90
5786;DHT22;2919;48.630;9.000;2022-11-13T05:06:41;0.50;99.90
5786;DHT22;2919;48.630;9.000;2022-11-13T05:09:06;0.60;99.90
5786;DHT22;2919;48.630;9.000;2022-11-13T05:11:32;0.60;99.90
5786;DHT22;2919;48.630;9.000;2022-11-13T05:13:58;0.70;99.90
5786;DHT22;2919;48.630;9.000;2022-11-13T05:16:23;0.60;99.90
5786;DHT22;2919;48.630;9.000;2022-11-13T05:18:49;0.60;99.90
5786;DHT22;2919;48.630;9.000;2022-11-13T05:21:14;0.50;99.90
5786;DHT22;2919;48.630;9.000;2022-11-13T05:23:40;0.60;99.90
5786;DHT22;2919;48.630;9.000;2022-11-13T05:26:08;0.60;99.90
5786;DHT22;2919;48.630;9.000;2022-11-13T05:28:34;0.60;99.90
5786;DHT22;2919;48.630;9.000;2022-11-13T05:31:10;0.70;99.90
5786;DHT22;2919;48.630;9.000;2022-11-13T05:33:37;0.70;99.90
5786;DHT22;2919;48.630;9.000;2022-11-13T05:36:05;0.70;99.90
5786;DHT22;2919;48.630;9.000;2022-11-13T05:38:31;0.70;99.90
5786;DHT22;2919;48.630;9.000;2022-11-13T05:41:20;0.70;99.90
5786;DHT22;2919;48.630;9.000;2022-11-13T05:43:47;0.60;99.90
5786;DHT22;2919;48.630;9.000;2022-11-13T05:46:22;0.60;99.90
5786;DHT22;2919;48.630;9.000;2022-11-13T05:48:56;0.60;99.90
5786;DHT22;2919;48.630;9.000;2022-11-13T05:51:27;0.60;99.90
5786;DHT22;2919;48.630;9.000;2022-11-13T05:53:54;0.50;99.90
5786;DHT22;2919;48.630;9.000;2022-11-13T05:56:38;0.50;99.90
5786;DHT22;2919;48.630;9.000;2022-11-13T05:59:04;0.50;99.90
5786;DHT22;2919;48.630;9.000;2022-11-13T06:01:35;0.60;99.90
5786;DHT22;2919;48.630;9.000;2022-11-13T06:04:01;0.70;99.90
5786;DHT22;2919;48.630;9.000;2022-11-13T06:06:29;0.70;99.90
5786;DHT22;2919;48.630;9.000;2022-11-13T06:08:56;0.70;99.90
5786;DHT22;2919;48.630;9.000;2022-11-13T06:11:24;0.80;99.90
5786;DHT22;2919;48.630;9.000;2022-11-13T06:13:51;0.80;99.90
5786;DHT22;2919;48.630;9.000;2022-11-13T06:16:23;0.80;99.90
5786;DHT22;2919;48.630;9.000;2022-11-13T06:18:52;0.80;99.90
5786;DHT22;2919;48.630;9.000;2022-11-13T06:21:20;0.80;99.90
5786;DHT22;2919;48.630;9.000;2022-11-13T06:23:46;0.70;99.90
5786;DHT22;2919;48.630;9.000;2022-11-13T06:26:18;0.70;99.90
5786;DHT22;2919;48.630;9.000;2022-11-13T06:28:44;0.70;99.90
5786;DHT22;2919;48.630;9.000;2022-11-13T06:31:13;0.70;99.90
5786;DHT22;2919;48.630;9.000;2022-11-13T06:33:39;0.70;99.90
5786;DHT22;2919;48.630;9.000;2022-11-13T06:36:11;0.70;99.90
5786;DHT22;2919;48.630;9.000;2022-11-13T06:38:38;0.70;99.90
5786;DHT22;2919;48.630;9.000;2022-11-13T06:41:05;0.70;99.90
5786;DHT22;2919;48.630;9.000;2022-11-13T06:43:31;0.80;99.90
5786;DHT22;2919;48.630;9.000;2022-11-13T06:45:57;0.80;99.90
5786;DHT22;2919;48.630;9.000;2022-11-13T06:48:23;0.80;99.90
5786;DHT22;2919;48.630;9.000;2022-11-13T06:50:49;0.80;99.90
5786;DHT22;2919;48.630;9.000;2022-11-13T06:53:15;0.80;99.90
5786;DHT22;2919;48.630;9.000;2022-11-13T06:55:48;0.80;99.90
5786;DHT22;2919;48.630;9.000;2022-11-13T06:58:15;0.90;99.90
5786;DHT22;2919;48.630;9.000;2022-11-13T07:00:41;0.90;99.90
5786;DHT22;2919;48.630;9.000;2022-11-13T07:03:33;1.00;99.90
5786;DHT22;2919;48.630;9.000;2022-11-13T07:06:04;1.10;99.90
5786;DHT22;2919;48.630;9.000;2022-11-13T07:08:31;1.20;99.90
5786;DHT22;2919;48.630;9.000;2022-11-13T07:10:57;1.20;99.90
5786;DHT22;2919;48.630;9.000;2022-11-13T07:13:24;1.20;99.90
5786;DHT22;2919;48.630;9.000;2022-11-13T07:15:50;1.30;99.90
5786;DHT22;2919;48.630;9.000;2022-11-13T07:18:16;1.30;99.90
5786;DHT22;2919;48.630;9.000;2022-11-13T07:20:41;1.30;99.90
5786;DHT22;2919;48.630;9.000;2022-11-13T07:23:07;1.40;99.90
5786;DHT22;2919;48.630;9.000;2022-11-13T07:25:33;1.40;99.90
5786;DHT22;2919;48.630;9.000;2022-11-13T07:27:58;1.50;99.90
5786;DHT22;2919;48.630;9.000;2022-11-13T07:30:24;1.50;99.90
5786;DHT22;2919;48.630;9.000;2022-11-13T07:32:50;1.50;99.90
5786;DHT22;2919;48.630;9.000;2022-11-13T07:35:16;1.50;99.90
5786;DHT22;2919;48.630;9.000;2022-11-13T07:37:43;1.60;99.90
5786;DHT22;2919;48.630;9.000;2022-11-13T07:40:09;1.60;99.90
5786;DHT22;2919;48.630;9.000;2022-11-13T07:42:36;1.60;99.90
5786;DHT22;2919;48.630;9.000;2022-11-13T07:45:02;1.60;99.90
5786;DHT22;2919;48.630;9.000;2022-11-13T07:47:27;1.70;99.90
5786;DHT22;2919;48.630;9.000;2022-11-13T07:49:53;1.80;99.90
5786;DHT22;2919;48.630;9.000;2022-11-13T07:52:19;1.80;99.90
5786;DHT22;2919;48.630;9.000;2022-11-13T07:54:44;1.90;99.90
5786;DHT22;2919;48.630;9.000;2022-11-13T07:57:10;2.00;99.90
5786;DHT22;2919;48.630;9.000;2022-11-13T07:59:35;2.20;99.90
5786;DHT22;2919;48.630;9.000;2022-11-13T08:02:01;2.20;99.90
5786;DHT22;2919;48.630;9.000;2022-11-13T08:04:28;2.30;99.90
5786;DHT22;2919;48.630;9.000;2022-11-13T08:06:54;2.40;99.90
5786;DHT22;2919;48.630;9.000;2022-11-13T08:09:20;2.50;99.90
5786;DHT22;2919;48.630;9.000;2022-11-13T08:11:45;2.60;99.90
5786;DHT22;2919;48.630;9.000;2022-11-13T08:14:11;2.70;99.90
5786;DHT22;2919;48.630;9.000;2022-11-13T08:16:37;2.90;99.90
5786;DHT22;2919;48.630;9.000;2022-11-13T08:19:03;3.10;99.90
5786;DHT22;2919;48.630;9.000;2022-11-13T08:21:28;3.30;99.90
5786;DHT22;2919;48.630;9.000;2022-11-13T08:23:54;3.50;99.90
5786;DHT22;2919;48.630;9.000;2022-11-13T08:26:19;3.70;99.90
5786;DHT22;2919;48.630;9.000;2022-11-13T08:28:45;3.80;99.90
5786;DHT22;2919;48.630;9.000;2022-11-13T08:31:13;3.90;99.90
5786;DHT22;2919;48.630;9.000;2022-11-13T08:33:39;4.00;99.90
5786;DHT22;2919;48.630;9.000;2022-11-13T08:36:05;4.10;99.90
5786;DHT22;2919;48.630;9.000;2022-11-13T08:38:31;4.10;99.90
5786;DHT22;2919;48.630;9.000;2022-11-13T08:40:58;4.00;99.90
5786;DHT22;2919;48.630;9.000;2022-11-13T08:43:24;3.90;99.90
5786;DHT22;2919;48.630;9.000;2022-11-13T08:45:49;3.90;99.90
5786;DHT22;2919;48.630;9.000;2022-11-13T08:48:15;3.80;99.90
5786;DHT22;2919;48.630;9.000;2022-11-13T08:50:41;3.80;99.90
5786;DHT22;2919;48.630;9.000;2022-11-13T08:53:06;3.80;99.90
5786;DHT22;2919;48.630;9.000;2022-11-13T08:55:33;3.80;99.90
5786;DHT22;2919;48.630;9.000;2022-11-13T08:57:59;3.80;99.90
5786;DHT22;2919;48.630;9.000;2022-11-13T09:00:26;3.80;99.90
5786;DHT22;2919;48.630;9.000;2022-11-13T09:02:57;3.80;99.90
5786;DHT22;2919;48.630;9.000;2022-11-13T09:05:23;3.90;99.90
5786;DHT22;2919;48.630;9.000;2022-11-13T09:07:49;3.90;99.90
5786;DHT22;2919;48.630;9.000;2022-11-13T09:10:16;4.00;99.90
5786;DHT22;2919;48.630;9.000;2022-11-13T09:12:42;4.00;99.90
5786;DHT22;2919;48.630;9.000;2022-11-13T09:15:09;4.00;99.90
5786;DHT22;2919;48.630;9.000;2022-11-13T09:17:35;4.10;99.90
5786;DHT22;2919;48.630;9.000;2022-11-13T09:20:00;4.20;99.90
5786;DHT22;2919;48.630;9.000;2022-11-13T09:22:26;4.30;99.90
5786;DHT22;2919;48.630;9.000;2022-11-13T09:24:52;4.30;99.90
5786;DHT22;2919;48.630;9.000;2022-11-13T09:27:17;4.40;99.90
5786;DHT22;2919;48.630;9.000;2022-11-13T09:29:43;4.60;99.90
5786;DHT22;2919;48.630;9.000;2022-11-13T09:32:08;4.70;99.90
5786;DHT22;2919;48.630;9.000;2022-11-13T09:34:34;4.80;99.90
5786;DHT22;2919;48.630;9.000;2022-11-13T09:36:59;5.10;99.90
5786;DHT22;2919;48.630;9.000;2022-11-13T09:39:25;5.30;99.90
5786;DHT22;2919;48.630;9.000;2022-11-13T09:42:21;5.50;99.90
5786;DHT22;2919;48.630;9.000;2022-11-13T09:44:52;5.60;99.90
5786;DHT22;2919;48.630;9.000;2022-11-13T09:47:27;5.70;99.90
5786;DHT22;2919;48.630;9.000;2022-11-13T09:52:43;5.90;99.90
5786;DHT22;2919;48.630;9.000;2022-11-13T09:55:15;6.00;99.90
5786;DHT22;2919;48.630;9.000;2022-11-13T09:57:51;6.30;99.90
5786;DHT22;2919;48.630;9.000;2022-11-13T10:00:20;6.40;99.90
5786;DHT22;2919;48.630;9.000;2022-11-13T10:05:47;6.70;99.90
5786;DHT22;2919;48.630;9.000;2022-11-13T10:08:25;6.90;99.90
5786;DHT22;2919;48.630;9.000;2022-11-13T10:13:48;7.20;99.90
5786;DHT22;2919;48.630;9.000;2022-11-13T10:16:31;7.30;99.90
5786;DHT22;2919;48.630;9.000;2022-11-13T10:21:57;7.50;99.90
5786;DHT22;2919;48.630;9.000;2022-11-13T10:24:27;7.70;99.90
5786;DHT22;2919;48.630;9.000;2022-11-13T10:26:57;7.80;99.90
5786;DHT22;2919;48.630;9.000;2022-11-13T10:29:26;7.90;99.90
5786;DHT22;2919;48.630;9.000;2022-11-13T10:31:53;8.00;99.90
5786;DHT22;2919;48.630;9.000;2022-11-13T10:34:19;8.00;99.90
5786;DHT22;2919;48.630;9.000;2022-11-13T10:36:50;8.10;99.90
5786;DHT22;2919;48.630;9.000;2022-11-13T10:39:18;8.20;99.90
5786;DHT22;2919;48.630;9.000;2022-11-13T10:41:50;8.40;99.90
5786;DHT22;2919;48.630;9.000;2022-11-13T10:46:47;8.80;99.90
5786;DHT22;2919;48.630;9.000;2022-11-13T10:49:18;8.90;99.90
5786;DHT22;2919;48.630;9.000;2022-11-13T10:51:44;8.80;99.90
5786;DHT22;2919;48.630;9.000;2022-11-13T10:54:30;9.00;99.90
5786;DHT22;2919;48.630;9.000;2022-11-13T10:57:02;9.00;99.90
5786;DHT22;2919;48.630;9.000;2022-11-13T10:59:41;8.80;99.90
5786;DHT22;2919;48.630;9.000;2022-11-13T11:04:35;9.10;99.90
5786;DHT22;2919;48.630;9.000;2022-11-13T11:09:39;9.00;99.90
5786;DHT22;2919;48.630;9.000;2022-11-13T11:12:11;9.30;99.90
5786;DHT22;2919;48.630;9.000;2022-11-13T11:15:02;9.40;99.90
5786;DHT22;2919;48.630;9.000;2022-11-13T11:20:08;9.50;99.90
5786;DHT22;2919;48.630;9.000;2022-11-13T11:22:38;9.60;99.90
5786;DHT22;2919;48.630;9.000;2022-11-13T11:25:12;9.80;99.90
5786;DHT22;2919;48.630;9.000;2022-11-13T11:27:49;9.70;99.90
5786;DHT22;2919;48.630;9.000;2022-11-13T11:30:22;9.70;99.90
5786;DHT22;2919;48.630;9.000;2022-11-13T11:33:25;9.90;99.90
5786;DHT22;2919;48.630;9.000;2022-11-13T11:36:02;9.80;99.90
5786;DHT22;2919;48.630;9.000;2022-11-13T11:38:50;9.90;99.90
5786;DHT22;2919;48.630;9.000;2022-11-13T11:41:19;10.20;99.50
5786;DHT22;2919;48.630;9.000;2022-11-13T11:43:54;10.20;98.60
5786;DHT22;2919;48.630;9.000;2022-11-13T11:46:26;10.10;99.90
5786;DHT22;2919;48.630;9.000;2022-11-13T11:48:58;10.10;99.90
5786;DHT22;2919;48.630;9.000;2022-11-13T11:51:48;10.20;99.40
5786;DHT22;2919;48.630;9.000;2022-11-13T11:54:43;10.20;99.60
5786;DHT22;2919;48.630;9.000;2022-11-13T12:00:19;10.20;99.70
5786;DHT22;2919;48.630;9.000;2022-11-13T12:05:33;10.20;99.90
5786;DHT22;2919;48.630;9.000;2022-11-13T12:16:41;10.30;99.90
5786;DHT22;2919;48.630;9.000;2022-11-13T12:22:13;10.60;99.50
5786;DHT22;2919;48.630;9.000;2022-11-13T12:25:03;10.50;99.20
5786;DHT22;2919;48.630;9.000;2022-11-13T12:30:19;10.40;99.50
5786;DHT22;2919;48.630;9.000;2022-11-13T12:35:28;10.30;99.70
5786;DHT22;2919;48.630;9.000;2022-11-13T12:38:22;10.40;99.80
5786;DHT22;2919;48.630;9.000;2022-11-13T12:46:33;10.50;99.80
5786;DHT22;2919;48.630;9.000;2022-11-13T12:48:59;10.50;99.90
5786;DHT22;2919;48.630;9.000;2022-11-13T12:51:39;10.70;99.60
5786;DHT22;2919;48.630;9.000;2022-11-13T12:54:07;10.70;99.80
5786;DHT22;2919;48.630;9.000;2022-11-13T12:56:34;10.70;99.70
5786;DHT22;2919;48.630;9.000;2022-11-13T13:01:50;10.90;99.60
5786;DHT22;2919;48.630;9.000;2022-11-13T13:17:35;11.20;99.00
5786;DHT22;2919;48.630;9.000;2022-11-13T13:20:04;11.10;99.20
5786;DHT22;2919;48.630;9.000;2022-11-13T13:22:33;11.20;99.20
5786;DHT22;2919;48.630;9.000;2022-11-13T13:25:03;11.20;99.10
5786;DHT22;2919;48.630;9.000;2022-11-13T13:27:35;11.20;98.80
5786;DHT22;2919;48.630;9.000;2022-11-13T13:30:17;11.30;98.70
5786;DHT22;2919;48.630;9.000;2022-11-13T13:33:03;11.30;98.60
5786;DHT22;2919;48.630;9.000;2022-11-13T13:35:43;11.30;98.70
5786;DHT22;2919;48.630;9.000;2022-11-13T13:38:25;11.30;99.10
5786;DHT22;2919;48.630;9.000;2022-11-13T13:43:53;11.30;99.30
5786;DHT22;2919;48.630;9.000;2022-11-13T13:46:23;11.30;99.30
5786;DHT22;2919;48.630;9.000;2022-11-13T13:48:52;11.20;99.80
5786;DHT22;2919;48.630;9.000;2022-11-13T13:51:27;11.30;98.80
5786;DHT22;2919;48.630;9.000;2022-11-13T13:53:58;11.20;99.40
5786;DHT22;2919;48.630;9.000;2022-11-13T13:56:25;11.20;99.50
5786;DHT22;2919;48.630;9.000;2022-11-13T13:58:51;11.10;99.30
5786;DHT22;2919;48.630;9.000;2022-11-13T14:01:29;11.00;99.30
5786;DHT22;2919;48.630;9.000;2022-11-13T14:06:29;10.90;99.20
5786;DHT22;2919;48.630;9.000;2022-11-13T14:09:06;10.90;99.30
5786;DHT22;2919;48.630;9.000;2022-11-13T14:11:32;10.80;98.90
5786;DHT22;2919;48.630;9.000;2022-11-13T14:14:09;10.70;99.20
5786;DHT22;2919;48.630;9.000;2022-11-13T14:16:46;10.70;99.30
5786;DHT22;2919;48.630;9.000;2022-11-13T14:19:12;10.70;99.60
5786;DHT22;2919;48.630;9.000;2022-11-13T14:21:38;10.60;99.60
5786;DHT22;2919;48.630;9.000;2022-11-13T14:24:04;10.60;99.90
5786;DHT22;2919;48.630;9.000;2022-11-13T14:26:30;10.50;99.90
5786;DHT22;2919;48.630;9.000;2022-11-13T14:29:00;10.50;99.90
5786;DHT22;2919;48.630;9.000;2022-11-13T14:31:31;10.50;99.90
5786;DHT22;2919;48.630;9.000;2022-11-13T14:34:07;10.50;99.90
5786;DHT22;2919;48.630;9.000;2022-11-13T14:36:34;10.40;99.90
5786;DHT22;2919;48.630;9.000;2022-11-13T14:39:00;10.40;99.90
5786;DHT22;2919;48.630;9.000;2022-11-13T14:41:36;10.30;99.90
5786;DHT22;2919;48.630;9.000;2022-11-13T14:44:03;10.30;99.90
5786;DHT22;2919;48.630;9.000;2022-11-13T14:49:00;10.20;99.90
5786;DHT22;2919;48.630;9.000;2022-11-13T14:51:31;10.10;99.90
5786;DHT22;2919;48.630;9.000;2022-11-13T14:54:03;10.00;99.90
5786;DHT22;2919;48.630;9.000;2022-11-13T14:56:33;9.90;99.90
5786;DHT22;2919;48.630;9.000;2022-11-13T14:59:11;9.90;99.90
5786;DHT22;2919;48.630;9.000;2022-11-13T15:01:38;9.80;99.90
5786;DHT22;2919;48.630;9.000;2022-11-13T15:04:04;9.80;99.90
5786;DHT22;2919;48.630;9.000;2022-11-13T15:06:36;9.60;99.90
5786;DHT22;2919;48.630;9.000;2022-11-13T15:09:03;9.60;99.90
5786;DHT22;2919;48.630;9.000;2022-11-13T15:11:30;9.50;99.90
5786;DHT22;2919;48.630;9.000;2022-11-13T15:13:55;9.40;99.90
5786;DHT22;2919;48.630;9.000;2022-11-13T15:16:27;9.40;99.90
5786;DHT22;2919;48.630;9.000;2022-11-13T15:21:34;9.30;99.90
5786;DHT22;2919;48.630;9.000;2022-11-13T15:24:00;9.20;99.90
5786;DHT22;2919;48.630;9.000;2022-11-13T15:26:25;9.00;99.90
5786;DHT22;2919;48.630;9.000;2022-11-13T15:28:51;8.90;99.90
5786;DHT22;2919;48.630;9.000;2022-11-13T15:31:21;8.80;99.90
5786;DHT22;2919;48.630;9.000;2022-11-13T15:33:48;8.70;99.90
5786;DHT22;2919;48.630;9.000;2022-11-13T15:36:14;8.60;99.90
5786;DHT22;2919;48.630;9.000;2022-11-13T15:38:40;8.50;99.90
5786;DHT22;2919;48.630;9.000;2022-11-13T15:41:14;8.40;99.90
5786;DHT22;2919;48.630;9.000;2022-11-13T15:43:46;8.30;99.90
5786;DHT22;2919;48.630;9.000;2022-11-13T15:46:14;8.10;99.90
5786;DHT22;2919;48.630;9.000;2022-11-13T15:48:42;8.00;99.90
5786;DHT22;2919;48.630;9.000;2022-11-13T15:51:23;7.90;99.90
5786;DHT22;2919;48.630;9.000;2022-11-13T15:53:55;7.80;99.90
5786;DHT22;2919;48.630;9.000;2022-11-13T15:56:22;7.70;99.90
5786;DHT22;2919;48.630;9.000;2022-11-13T15:58:49;7.60;99.90
5786;DHT22;2919;48.630;9.000;2022-11-13T16:01:15;7.40;99.90
5786;DHT22;2919;48.630;9.000;2022-11-13T16:03:41;7.30;99.90
5786;DHT22;2919;48.630;9.000;2022-11-13T16:06:10;7.10;99.90
5786;DHT22;2919;48.630;9.000;2022-11-13T16:08:36;6.90;99.90
5786;DHT22;2919;48.630;9.000;2022-11-13T16:11:02;6.80;99.90
5786;DHT22;2919;48.630;9.000;2022-11-13T16:13:28;6.70;99.90
5786;DHT22;2919;48.630;9.000;2022-11-13T16:15:54;6.60;99.90
5786;DHT22;2919;48.630;9.000;2022-11-13T16:18:25;6.50;99.90
5786;DHT22;2919;48.630;9.000;2022-11-13T16:20:52;6.50;99.90
5786;DHT22;2919;48.630;9.000;2022-11-13T16:23:17;6.40;99.90
5786;DHT22;2919;48.630;9.000;2022-11-13T16:25:45;6.30;99.90
5786;DHT22;2919;48.630;9.000;2022-11-13T16:28:17;6.30;99.90
5786;DHT22;2919;48.630;9.000;2022-11-13T16:30:44;6.20;99.90
5786;DHT22;2919;48.630;9.000;2022-11-13T16:33:11;6.10;99.90
5786;DHT22;2919;48.630;9.000;2022-11-13T16:35:37;6.00;99.90
5786;DHT22;2919;48.630;9.000;2022-11-13T16:38:10;6.00;99.90
5786;DHT22;2919;48.630;9.000;2022-11-13T16:40:36;5.90;99.90
5786;DHT22;2919;48.630;9.000;2022-11-13T16:43:02;5.80;99.90
5786;DHT22;2919;48.630;9.000;2022-11-13T16:45:27;5.70;99.90
5786;DHT22;2919;48.630;9.000;2022-11-13T16:47:53;5.60;99.90
5786;DHT22;2919;48.630;9.000;2022-11-13T16:50:29;5.50;99.90
5786;DHT22;2919;48.630;9.000;2022-11-13T16:52:55;5.50;99.90
5786;DHT22;2919;48.630;9.000;2022-11-13T16:55:21;5.40;99.90
5786;DHT22;2919;48.630;9.000;2022-11-13T16:57:47;5.40;99.90
5786;DHT22;2919;48.630;9.000;2022-11-13T17:00:15;5.30;99.90
5786;DHT22;2919;48.630;9.000;2022-11-13T17:02:41;5.20;99.90
5786;DHT22;2919;48.630;9.000;2022-11-13T17:05:14;5.20;99.90
5786;DHT22;2919;48.630;9.000;2022-11-13T17:07:40;5.10;99.90
5786;DHT22;2919;48.630;9.000;2022-11-13T17:10:08;5.10;99.90
5786;DHT22;2919;48.630;9.000;2022-11-13T17:12:35;4.90;99.90
5786;DHT22;2919;48.630;9.000;2022-11-13T17:15:00;4.90;99.90
5786;DHT22;2919;48.630;9.000;2022-11-13T17:17:26;4.90;99.90
5786;DHT22;2919;48.630;9.000;2022-11-13T17:19:51;4.80;99.90
5786;DHT22;2919;48.630;9.000;2022-11-13T17:22:17;4.80;99.90
5786;DHT22;2919;48.630;9.000;2022-11-13T17:24:43;4.80;99.90
5786;DHT22;2919;48.630;9.000;2022-11-13T17:27:08;4.70;99.90
5786;DHT22;2919;48.630;9.000;2022-11-13T17:29:34;4.60;99.90
5786;DHT22;2919;48.630;9.000;2022-11-13T17:31:59;4.50;99.90
5786;DHT22;2919;48.630;9.000;2022-11-13T17:34:25;4.40;99.90
5786;DHT22;2919;48.630;9.000;2022-11-13T17:36:52;4.40;99.90
5786;DHT22;2919;48.630;9.000;2022-11-13T17:39:19;4.40;99.90
5786;DHT22;2919;48.630;9.000;2022-11-13T17:41:45;4.40;99.90
5786;DHT22;2919;48.630;9.000;2022-11-13T17:44:11;4.30;99.90
5786;DHT22;2919;48.630;9.000;2022-11-13T17:46:36;4.30;99.90
5786;DHT22;2919;48.630;9.000;2022-11-13T17:49:02;4.20;99.90